Airfield :
LOGIN :

Register | Disclaimer

   EN    FR    IT 

 










Legend :    VFR   Marginal VFR   IFR   Intensive IFR   Very Intensive IFR
Visi :
Ceiling :
>= 8 km
>= 3000ft
5 to 8 km
1000 to 3000 ft
1500m to 5 km
500 to 1000 ft
800 to 1500m
200 to 500 ft
< 800m
< 200 ft
Symbols :   Thunderstorms  Fog  Heavy snow  Heavy precipitations  Wind > 20 kt
SIGMETs :     Misc.  Thunderstorms  Icing  Turbulence  Mountain Waves  Volcanic Ashes






- Airport Elevation : 276 ft


LYVR - Vršac International

CURRENT METAR :
  • 170730Z 15011KT 120V180 CAVOK 26/14 Q1011 NOSIG

EXPIRED METARs :
  • 170700Z 16011KT 9999 SCT040 24/13 Q1011 NOSIG
  • 170630Z 16014KT 9999 SCT040 25/13 Q1011 NOSIG
  • 170600Z 15011KT 9999 FEW040 25/13 Q1011 NOSIG
  • 170530Z 15007KT 9999 FEW040 23/14 Q1011 NOSIG
  • 170500Z 18002KT 9999 FEW040 23/13 Q1011 NOSIG

TAF TAF LYVR
Valid from the 17 at 06:00 until the 18 at 06:00 UTC


170500Z 1706/1806 17006KT CAVOK TX29/1713Z TN13/1803Z
TEMPO 1707/1711 19016KT
BECMG 1713/1715 30010KT
TEMPO 1713/1718 27015G25KT 5000 TSRA SCT030CB SCT040



MET'MAP, your aeronautical weather chart ! - Copyright ORBIFLY December 2007 - Disclaimer

ORBIFLY MET'MAP TEAM :

Programming & Development : Alexandra Zaïnal
Concept & original design : Baudouin d'Aumeries
Assistance for programming : Marc-Olivier Méhu
Technical & hardware support : Manuel Goepfert

Contact : metmap@orbifly.com




SOURCES & CREDITS :

   NOAA